Flight Track Log - Related Links

Times and Time Zones

All times are in EDT time to prevent confusion due to time zone crossing. See the SWA16 flight status page for this flight to view local times or setup timezone preferences in your user account.

Time Position Orientation Groundspeed Altitude Reporting Facility
EDT Latitude Longitude Course Direction KTS MPH feet Rate Location/Type
Mon 07:37:14 PM 39.9500 -104.6333 72° East 231 266 8,400  Level Denver TRACON
Mon 07:38:14 PM 40.0167 -104.5833 30° Northeast 288 331 10,400 2,100 Climbing Denver TRACON
Mon 07:39:14 PM 40.0333 -104.4833 78° East 333 383 12,600 2,581 Climbing Denver TRACON
Mon 07:41:13 PM 39.9531 -104.2525 114° Southeast 368 423 18,100 2,518 Climbing Denver Center
Mon 07:42:00 PM 39.8776 -103.7562 72° East  Level FlightAware Approximate
Mon 07:42:27 PM 39.9339 -104.1097 100° East 379 436 20,700  Level Denver Center
Mon 07:43:29 PM 39.9097 -103.9308 100° East 414 476 23,100 2,032 Climbing Denver Center
Mon 07:44:31 PM 39.8906 -103.7950 100° East 415 478 24,900 1,645 Climbing Denver Center
Mon 07:45:33 PM 39.8978 -103.6131 87° East 436 502 26,500 1,597 Climbing Denver Center
Mon 07:46:35 PM 39.9158 -103.4469 82° East 456 525 28,200 1,613 Climbing Denver Center
Mon 07:48:00 PM 39.9322 -103.2321 84° East  Level FlightAware Approximate
Mon 07:48:39 PM 39.9597 -103.1122 84° East 469 540 31,500  Level Denver Center
Mon 07:50:00 PM 39.9749 -102.9099 82° East  Level FlightAware Approximate
Mon 07:50:43 PM 40.0203 -102.7781 82° East 468 539 34,700  Level Denver Center
Mon 07:52:00 PM 40.0081 -102.5783 84° East  Level FlightAware Approximate
Mon 07:52:47 PM 40.0764 -102.4392 84° East 468 539 36,900  Level Denver Center
Mon 07:53:49 PM 40.1072 -102.2564 78° East 461 531 37,000 48 Climbing Denver Center
Mon 07:54:51 PM 40.1336 -102.0994 78° East 462 532 37,000  Level Denver Center
Mon 07:56:00 PM 40.1300 -101.9237 91° East  Level FlightAware Approximate
Mon 07:58:59 PM 40.2419 -101.4236 82° East 460 529 37,000  Level Denver Center
Mon 08:00:00 PM 40.2346 -101.2682 93° East  Level FlightAware Approximate
Mon 08:01:03 PM 40.2961 -101.0856 93° East 462 532 37,000  Level Denver Center
Mon 08:03:00 PM 40.1722 -100.8507 82° East  Level FlightAware Approximate
Mon 08:03:07 PM 40.3442 -100.7731 78° East 461 531 37,000  Level Denver Center
Mon 08:04:00 PM 40.1880 -100.6991 82° East  Level FlightAware Approximate
Mon 08:04:09 PM 40.3689 -100.6153 78° East 464 534 37,000  Level Denver Center
Mon 08:05:11 PM 40.3997 -100.4042 79° East 466 536 37,000  Level Denver Center
Mon 08:06:13 PM 40.4269 -100.2192 79° East 467 537 37,000  Level Denver Center
Mon 08:07:15 PM 40.4519 -100.0603 78° East 467 537 37,000  Level Denver Center
Mon 08:08:17 PM 40.4786 -99.8722 79° East 470 541 37,000  Level Denver Center
Mon 08:09:19 PM 40.5006 -99.7200 79° East 470 541 37,000  Level Denver Center
Mon 08:11:28 PM 40.5578 -99.3500 78° East 474 545 37,000  Level Minneapolis Center
Mon 08:12:30 PM 40.5922 -99.1833 75° East 475 547 37,000  Level Minneapolis Center
Mon 08:13:44 PM 40.6256 -99.0169 75° East 474 545 37,000  Level Minneapolis Center
Mon 08:14:46 PM 40.6717 -98.7836 75° East 474 545 37,000  Level Minneapolis Center
Mon 08:15:48 PM 40.7042 -98.6172 76° East 474 545 37,000  Level Minneapolis Center
Mon 08:16:50 PM 40.7372 -98.4508 75° East 474 545 37,000  Level Minneapolis Center
Mon 08:17:52 PM 40.7692 -98.2847 76° East 473 544 37,000  Level Minneapolis Center
Mon 08:19:00 PM 40.8089 -98.1169 73° East  Level FlightAware Approximate
Mon 08:19:56 PM 40.8394 -97.9189 73° East 470 541 37,000  Level Minneapolis Center
Mon 08:20:58 PM 40.8711 -97.7514 76° East 470 541 37,000  Level Minneapolis Center
Mon 08:22:00 PM 40.9025 -97.5833 76° East 472 543 37,000  Level Minneapolis Center
Mon 08:23:02 PM 40.9328 -97.4153 77° East 472 543 37,000  Level Minneapolis Center
Mon 08:24:04 PM 40.9639 -97.2453 76° East 472 543 37,000  Level Minneapolis Center
Mon 08:25:06 PM 40.9944 -97.0772 76° East 472 543 37,000  Level Minneapolis Center
Mon 08:26:08 PM 41.0258 -96.9100 76° East 471 542 37,000  Level Minneapolis Center
Mon 08:28:12 PM 41.0917 -96.5414 77° East 469 540 37,000  Level Minneapolis Center
Mon 08:29:14 PM 41.1214 -96.3742 77° East 468 539 37,000  Level Minneapolis Center
Mon 08:30:16 PM 41.1517 -96.2033 77° East 472 543 37,000  Level Minneapolis Center
Mon 08:31:18 PM 41.1800 -96.0353 77° East 469 540 37,000  Level Minneapolis Center
Mon 08:32:20 PM 41.2083 -95.8672 77° East 468 539 37,000  Level Minneapolis Center
Mon 08:33:23 PM 41.2428 -95.6694 77° East 461 531 37,000  Level Minneapolis Center
Mon 08:34:25 PM 41.2656 -95.5164 79° East 458 527 37,000  Level Minneapolis Center
Mon 08:35:27 PM 41.2936 -95.3525 77° East 457 526 37,000  Level Minneapolis Center
Mon 08:37:38 PM 41.3531 -94.9889 78° East 450 518 37,000 31 Level Chicago Center
Mon 08:38:40 PM 41.3778 -94.8297 78° East 447 514 37,100 513 Climbing Chicago Center
Mon 08:39:35 PM 41.4033 -94.6733 78° East 447 514 38,000 667 Climbing Minneapolis Center
Mon 08:40:37 PM 41.4319 -94.5081 77° East 454 522 38,400 484 Climbing Minneapolis Center
Mon 08:41:39 PM 41.4553 -94.3400 79° East 459 528 39,000 194 Climbing Minneapolis Center
Mon 08:43:43 PM 41.5117 -93.9714 78° East 462 532 39,000  Level Minneapolis Center
Mon 08:44:45 PM 41.5383 -93.8056 78° East 461 531 39,000  Level Minneapolis Center
Mon 08:45:47 PM 41.5625 -93.6425 79° East 458 527 39,000  Level Minneapolis Center
Mon 08:46:49 PM 41.5875 -93.4794 78° East 455 524 39,000  Level Minneapolis Center
Mon 08:47:51 PM 41.6103 -93.3181 79° East 448 516 39,000  Level Minneapolis Center
Mon 08:48:54 PM 41.6339 -93.1597 79° East 440 506 39,000  Level Minneapolis Center
Mon 08:49:56 PM 41.6611 -92.9706 79° East 436 502 39,000  Level Minneapolis Center
Mon 08:50:58 PM 41.6825 -92.8139 80° East 433 498 39,000  Level Minneapolis Center
Mon 08:52:00 PM 41.7033 -92.6664 79° East 431 496 39,000  Level Minneapolis Center
Mon 08:53:09 PM 41.7303 -92.4767 79° East 435 501 39,000  Level Chicago Center
Mon 08:54:11 PM 41.7517 -92.3186 80° East 436 502 39,000  Level Chicago Center
Mon 08:55:13 PM 41.7781 -92.1286 79° East 438 504 39,000  Level Chicago Center
Mon 08:56:15 PM 41.7986 -91.9708 80° East 436 502 39,000  Level Chicago Center
Mon 08:57:17 PM 41.8197 -91.8142 80° East 435 501 39,000  Level Chicago Center
Mon 09:00:23 PM 41.8842 -91.3194 80° East 431 496 39,000  Level Chicago Center
Mon 09:02:00 PM 41.9164 -91.0674 80° East  Level FlightAware Approximate
Mon 09:04:31 PM 41.9653 -90.6675 81° East 428 493 39,000  Level Chicago Center
Mon 09:05:33 PM 41.9828 -90.5139 81° East 423 487 39,000  Level Chicago Center
Mon 09:06:35 PM 42.0022 -90.3567 80° East 428 493 39,000  Level Chicago Center
Mon 09:07:37 PM 42.0200 -90.2003 81° East 428 493 39,000  Level Chicago Center
Mon 09:08:39 PM 42.0389 -90.0419 81° East 432 497 39,000  Level Chicago Center
Mon 09:09:00 PM 42.0473 -89.9727 81° East  Level FlightAware Approximate
Mon 09:09:41 PM 42.0606 -89.8528 81° East 431 496 39,000  Level Chicago Center
Mon 09:10:00 PM 42.0650 -89.8159 81° East  Level FlightAware Approximate
Mon 09:10:43 PM 42.0786 -89.6894 81° East 435 501 39,000  Level Chicago Center
Mon 09:11:45 PM 42.0961 -89.5306 82° East 431 496 39,000  Level Chicago Center
Mon 09:12:46 PM 42.1131 -89.3708 82° East 430 495 39,000  Level Chicago Center
Mon 09:13:49 PM 42.1311 -89.2111 81° East 433 498 39,000  Level Chicago Center
Mon 09:14:50 PM 42.1514 -89.0258 82° East 430 495 39,000  Level Chicago Center
Mon 09:15:52 PM 42.1683 -88.8703 82° East 423 487 39,000  Level Chicago Center
Mon 09:16:54 PM 42.1850 -88.7125 82° East 427 491 39,000  Level Chicago Center
Mon 09:17:57 PM 42.2011 -88.5572 82° East 422 486 39,000  Level Chicago Center
Mon 09:18:57 PM 42.2158 -88.4017 83° East 420 483 39,000  Level Chicago Center
Mon 09:19:59 PM 42.2319 -88.2453 82° East 421 484 39,000  Level Chicago Center
Mon 09:21:01 PM 42.2492 -88.0592 83° East 418 481 39,000  Level Chicago Center
Mon 09:22:03 PM 42.2567 -87.9019 86° East 418 481 39,000  Level Chicago Center
Mon 09:23:04 PM 42.2650 -87.7453 86° East 419 482 39,000  Level Chicago Center
Mon 09:24:06 PM 42.2733 -87.5872 86° East 422 486 39,000  Level Chicago Center
Mon 09:25:08 PM 42.2806 -87.4306 86° East 420 483 39,000  Level Chicago Center
Mon 09:26:09 PM 42.2892 -87.2742 86° East 419 482 39,000  Level Chicago Center
Mon 09:27:11 PM 42.2967 -87.1186 86° East 418 481 39,000  Level Chicago Center
Mon 09:28:13 PM 42.3036 -86.9325 87° East 413 475 39,000  Level Chicago Center
Mon 09:30:16 PM 42.3189 -86.6203 86° East 412 474 39,000  Level Chicago Center
Mon 09:31:18 PM 42.3256 -86.4683 87° East 409 471 39,000  Level Chicago Center
Mon 09:32:19 PM 42.3322 -86.3169 87° East 408 470 39,000  Level Chicago Center
Mon 09:33:21 PM 42.3367 -86.1658 88° East 407 468 39,000  Level Chicago Center
Mon 09:34:22 PM 42.3436 -86.0139 86° East 407 468 39,000  Level Chicago Center
Mon 09:35:24 PM 42.3483 -85.8631 88° East 405 466 39,000  Level Chicago Center
Mon 09:36:25 PM 42.3556 -85.6800 87° East 409 471 39,000  Level Chicago Center
Mon 09:37:27 PM 42.3611 -85.5286 87° East 407 468 39,000  Level Chicago Center
Mon 09:38:29 PM 42.3656 -85.3761 88° East 408 470 39,000  Level Chicago Center
Mon 09:39:30 PM 42.3719 -85.2264 87° East 402 463 39,000  Level Chicago Center
Mon 09:40:32 PM 42.3786 -85.0750 87° East 404 465 39,000  Level Chicago Center
Mon 09:41:33 PM 42.3825 -84.9242 88° East 403 464 39,000  Level Chicago Center
Mon 09:42:35 PM 42.3864 -84.7728 88° East 404 465 39,000  Level Chicago Center
Mon 09:43:36 PM 42.3875 -84.6119 89° East 403 464 39,000  Level Cleveland Center
Mon 09:44:36 PM 42.3906 -84.4603 88° East 403 464 39,000  Level Cleveland Center
Mon 09:45:36 PM 42.3956 -84.3089 87° East 403 464 39,000  Level Cleveland Center
Mon 09:47:36 PM 42.4008 -84.0053 89° East 403 464 39,000  Level Cleveland Center
Mon 09:48:36 PM 42.4053 -83.8536 88° East 403 464 39,000  Level Cleveland Center
Mon 09:49:36 PM 42.4056 -83.6989 90° East 403 464 39,000  Level Cleveland Center
Mon 09:50:36 PM 42.4100 -83.5306 88° East 403 464 39,000  Level Cleveland Center
Mon 09:51:36 PM 42.4219 -83.3792 84° East 408 470 39,000  Level Cleveland Center
Mon 09:52:36 PM 42.4342 -83.2222 84° East 413 475 39,000  Level Cleveland Center
Mon 09:53:36 PM 42.4458 -83.0678 84° East 413 475 39,000  Level Cleveland Center
Mon 09:54:36 PM 42.4575 -82.9133 84° East 413 475 39,000  Level Cleveland Center
Mon 09:57:36 PM 42.4889 -82.4472 85° East 413 475 39,000  Level Cleveland Center
Mon 09:58:36 PM 42.4997 -82.2925 85° East 408 470 39,000  Level Cleveland Center
Mon 09:59:36 PM 42.5100 -82.1408 85° East 408 470 39,000  Level Cleveland Center
Mon 10:00:36 PM 42.5183 -81.9889 86° East 408 470 39,000  Level Cleveland Center
Mon 10:02:00 PM 42.5301 -81.7681 86° East  Level FlightAware Approximate
Mon 10:02:36 PM 42.5403 -81.7047 86° East 403 464 39,000  Level Cleveland Center
Mon 10:03:36 PM 42.5500 -81.5469 85° East 409 471 39,000  Level Cleveland Center
Mon 10:04:36 PM 42.5594 -81.3808 86° East 409 471 39,000  Level Cleveland Center
Mon 10:06:00 PM 42.5672 -81.1596 87° East  Level FlightAware Approximate
Mon 10:06:36 PM 42.5758 -81.0708 87° East 407 468 39,000  Level Cleveland Center
Mon 10:08:36 PM 42.5933 -80.7553 86° East 414 476 39,000  Level Cleveland Center
Mon 10:09:36 PM 42.6019 -80.6000 86° East 414 476 39,000  Level Cleveland Center
Mon 10:10:36 PM 42.6103 -80.4478 86° East 413 475 39,000  Level Cleveland Center
Mon 10:11:36 PM 42.6161 -80.2814 87° East 423 487 39,000  Level Cleveland Center
Mon 10:13:00 PM 42.6251 -80.0600 87° East  Level FlightAware Approximate
Mon 10:13:36 PM 42.6294 -79.9822 87° East 423 487 39,000  Level Cleveland Center
Mon 10:14:36 PM 42.6411 -79.8211 84° East 423 487 39,000  Level Cleveland Center
Mon 10:15:36 PM 42.6483 -79.6658 86° East 423 487 39,000  Level Cleveland Center
Mon 10:16:36 PM 42.6553 -79.5047 87° East 423 487 39,000  Level Cleveland Center
Mon 10:18:36 PM 42.6686 -79.1856 87° East 423 487 39,000  Level Cleveland Center
Mon 10:19:36 PM 42.6728 -79.0217 88° East 423 487 39,000  Level Cleveland Center
Mon 10:20:36 PM 42.6789 -78.8633 87° East 423 487 39,000 -50 Level Cleveland Center
Mon 10:21:36 PM 42.6847 -78.7022 87° East 423 487 38,900 -50 Descending Cleveland Center
Mon 10:22:36 PM 42.6903 -78.5436 87° East 423 487 38,900  Level Cleveland Center
Mon 10:23:36 PM 42.6956 -78.3825 87° East 423 487 38,900  Level Cleveland Center
Mon 10:25:00 PM 42.6849 -78.1616 87° East  Level FlightAware Approximate
Mon 10:25:36 PM 42.7056 -78.0544 87° East 423 487 38,900  Level Cleveland Center
Mon 10:26:36 PM 42.7103 -77.8931 88° East 423 487 38,900  Level Cleveland Center
Mon 10:27:36 PM 42.7125 -77.7264 89° East 423 487 38,900  Level Cleveland Center
Mon 10:30:02 PM 42.7236 -77.3050 88° East 443 510 38,900  Level Boston Center
Mon 10:31:02 PM 42.7264 -77.1414 89° East 438 504 38,900  Level Boston Center
Mon 10:32:02 PM 42.7286 -76.9803 89° East 438 504 38,900  Level Boston Center
Mon 10:33:02 PM 42.7331 -76.8136 88° East 438 504 38,900  Level Boston Center
Mon 10:34:02 PM 42.7353 -76.6497 89° East 438 504 38,900  Level Boston Center
Mon 10:35:02 PM 42.7389 -76.4861 88° East 438 504 38,900  Level Boston Center
Mon 10:36:02 PM 42.7406 -76.3192 89° East 438 504 38,900  Level Boston Center
Mon 10:37:02 PM 42.7417 -76.1667 89° East 438 504 38,900  Level Boston Center
Mon 10:38:02 PM 42.7469 -76.0028 87° East 438 504 38,900  Level Boston Center
Mon 10:39:02 PM 42.7458 -75.8331 90° East 438 504 38,900  Level Boston Center
Mon 10:40:02 PM 42.7464 -75.6664 90° East 438 504 38,900  Level Boston Center
Mon 10:41:02 PM 42.7489 -75.4994 89° East 438 504 38,900  Level Boston Center
Mon 10:42:02 PM 42.7492 -75.3297 90° East 438 504 38,900  Level Boston Center
Mon 10:43:02 PM 42.7494 -75.1572 90° East 438 504 38,900 -550 Level Boston Center
Mon 10:44:02 PM 42.7489 -74.9933 90° East 443 510 37,800 -1,800 Descending Boston Center
Mon 10:45:02 PM 42.7506 -74.8294 89° East 437 503 35,300 -3,100 Descending Boston Center
Mon 10:46:02 PM 42.7522 -74.6372 89° East 444 511 31,600 -3,150 Descending Boston Center
Mon 10:47:02 PM 42.7511 -74.4675 90° East 449 517 29,000 -1,350 Descending Boston Center
Mon 10:48:02 PM 42.7500 -74.2978 90° East 449 517 28,900 -50 Descending Boston Center
Mon 10:49:02 PM 42.7506 -74.1253 90° East 449 517 28,900  Level Boston Center
Mon 10:50:02 PM 42.7467 -73.9528 92° East 449 517 28,900  Level Boston Center
Mon 10:51:02 PM 42.7469 -73.7772 90° East 454 522 28,900 -150 Level Boston Center
Mon 10:52:02 PM 42.7547 -73.6247 86° East 454 522 28,600 -650 Descending Boston Center
Mon 10:53:02 PM 42.7606 -73.4525 87° East 459 528 27,600 -950 Descending Boston Center
Mon 10:54:02 PM 42.7683 -73.2828 86° East 459 528 26,700 -1,000 Descending Boston Center
Mon 10:55:14 PM 42.7778 -73.0850 86° East 440 506 25,400 -1,409 Descending Boston Center
Mon 10:56:14 PM 42.7850 -72.9153 87° East 440 506 23,600 -2,450 Descending Boston Center
Mon 10:57:14 PM 42.7897 -72.7542 88° East 440 506 20,500 -2,550 Descending Boston Center
Mon 10:58:14 PM 42.7961 -72.6381 86° East 422 486 18,500 -2,450 Descending Boston Center
Mon 10:59:14 PM 42.8025 -72.4600 87° East 395 455 15,600 -2,636 Descending Boston Center
Mon 11:00:26 PM 42.8108 -72.2758 86° East 381 438 12,700 -2,227 Descending Boston Center
Mon 11:01:26 PM 42.8147 -72.1514 88° East 368 423 10,700 -1,400 Descending Boston Center
Mon 11:02:26 PM 42.8186 -72.0183 88° East 344 396 9,900 -1,150 Descending Boston Center
Mon 11:03:26 PM 42.8264 -71.9050 85° East 301 346 8,400 -1,300 Descending Boston Center
Mon 11:04:26 PM 42.8383 -71.8031 81° East 289 333 7,300 -1,450 Descending Boston Center
Mon 11:05:26 PM 42.8461 -71.7039 84° East 268 308 5,500 -2,050 Descending Boston Center
Mon 11:06:26 PM 42.8558 -71.6075 82° East 257 296 3,200 -1,850 Descending Boston Center
Mon 11:07:26 PM 42.8697 -71.5222 77° East 236 272 1,800 -1,150 Descending Boston Center
Mon 11:08:26 PM 42.9050 -71.4792 42° Northeast 187 215 900 -750 Descending Boston Center
Mon 11:09:26 PM 42.9336 -71.4361 48° Northeast 152 175 300 4,050 Descending Boston Center
Mon 11:10:26 PM 42.9644 -71.3931 46° Northeast 152 175 9,000 4,350 Climbing Boston Center
Mon 11:11:26 PM 42.9953 -71.3500 46° Northeast 152 175 9,000  Level Boston Center
Mon 11:12:26 PM 43.0261 -71.3069 46° Northeast 152 175 9,000  Level Boston Center
Mon 11:13:26 PM 43.0508 -71.2722 46° Northeast 152 175 9,000  Level Boston Center
Mon 11:14:26 PM 43.0508 -71.2722 334° Northwest 152 175 9,000  Level Boston Center
Mon 11:15:26 PM 43.0508 -71.2722 334° Northwest 152 175 9,000  Level Boston Center
Mon 11:17:00 PM 42.9328 -71.4358 222° Southwest  Level Estimated
Mon 11:24:00 PM 42.9328 -71.4358 222° Southwest  Level Estimated
Mon 11:25:00 PM 42.9328 -71.4358 222° Southwest  Level Estimated
Mon 11:26:00 PM 42.9328 -71.4358 222° Southwest  Level Estimated
Mon 11:27:00 PM 42.9328 -71.4358 222° Southwest  Level Estimated

Login

Don't have an account? Register now (free) for customized features, flight alerts, and more!